createdAt,value
2023-04-30T00:02:09.261Z,13.60
2023-04-30T00:04:35.904Z,13.50
2023-04-30T00:07:02.635Z,13.80
2023-04-30T00:09:29.245Z,14.00
2023-04-30T00:11:55.931Z,14.20
2023-04-30T00:14:22.555Z,14.30
2023-04-30T00:16:49.504Z,13.90
2023-04-30T00:19:16.185Z,13.50
2023-04-30T00:21:42.814Z,13.10
2023-04-30T00:24:09.488Z,13.00
2023-04-30T00:26:36.108Z,13.30
2023-04-30T00:29:02.691Z,13.50
2023-04-30T00:31:29.353Z,13.70
2023-04-30T00:33:55.994Z,13.80
2023-04-30T00:36:22.576Z,13.70
2023-04-30T00:38:49.176Z,14.00
2023-04-30T00:41:15.808Z,14.00
2023-04-30T00:43:42.459Z,14.00
2023-04-30T00:46:09.086Z,14.00
2023-04-30T00:48:35.727Z,14.10
2023-04-30T00:51:02.295Z,13.90
2023-04-30T00:53:28.915Z,14.00
2023-04-30T00:55:55.604Z,13.90
2023-04-30T00:58:22.214Z,14.10
2023-04-30T01:00:48.813Z,14.20
2023-04-30T01:03:15.507Z,13.80
2023-04-30T01:05:42.221Z,13.50
2023-04-30T01:08:08.786Z,13.20
2023-04-30T01:10:35.518Z,13.50
2023-04-30T01:13:02.129Z,13.60
2023-04-30T01:15:28.710Z,13.90
2023-04-30T01:17:55.490Z,14.00
2023-04-30T01:20:22.228Z,13.90
2023-04-30T01:22:48.852Z,13.30
2023-04-30T01:25:15.528Z,13.20
2023-04-30T01:27:42.151Z,13.50
2023-04-30T01:30:08.765Z,13.70
2023-04-30T01:32:35.758Z,13.70
2023-04-30T01:35:03.258Z,13.70
2023-04-30T01:37:30.046Z,13.50
2023-04-30T01:39:56.987Z,13.60
2023-04-30T01:42:23.774Z,13.60
2023-04-30T01:44:50.356Z,13.60
2023-04-30T01:47:16.965Z,13.50
2023-04-30T01:49:43.718Z,13.50
2023-04-30T01:52:10.375Z,13.60
2023-04-30T01:54:36.946Z,12.80
2023-04-30T01:57:03.635Z,13.00
2023-04-30T01:59:30.231Z,13.00
2023-04-30T02:01:56.832Z,13.00
2023-04-30T02:04:23.660Z,12.90
2023-04-30T02:06:50.433Z,12.70
2023-04-30T02:09:17.016Z,12.80
2023-04-30T02:11:43.597Z,13.00
2023-04-30T02:14:10.161Z,13.10
2023-04-30T02:16:36.814Z,12.80
2023-04-30T02:19:03.516Z,12.50
2023-04-30T02:21:30.093Z,12.80
2023-04-30T02:24:00.015Z,12.90
2023-04-30T02:26:26.707Z,13.10
2023-04-30T02:28:53.284Z,12.80
2023-04-30T02:31:19.933Z,12.80
2023-04-30T02:33:46.530Z,12.90
2023-04-30T02:36:13.132Z,13.10
2023-04-30T02:38:39.694Z,13.00
2023-04-30T02:41:06.284Z,13.00
2023-04-30T02:43:32.851Z,13.20
2023-04-30T02:45:59.501Z,13.30
2023-04-30T02:48:26.090Z,13.20
2023-04-30T02:50:52.681Z,13.30
2023-04-30T02:53:19.357Z,13.00
2023-04-30T02:55:45.956Z,13.10
2023-04-30T02:58:12.629Z,13.30
2023-04-30T03:00:39.245Z,13.40
2023-04-30T03:03:05.990Z,13.40
2023-04-30T03:05:32.643Z,13.40
2023-04-30T03:07:59.237Z,13.20
2023-04-30T03:10:25.829Z,13.10
2023-04-30T03:12:53.447Z,12.90
2023-04-30T03:15:20.029Z,13.20
2023-04-30T03:17:47.065Z,13.30
2023-04-30T03:20:13.646Z,13.10
2023-04-30T03:22:40.414Z,13.10
2023-04-30T03:25:07.004Z,13.30
2023-04-30T03:27:33.650Z,13.50
2023-04-30T03:30:00.255Z,13.70
2023-04-30T03:32:26.848Z,13.50
2023-04-30T03:34:53.453Z,13.40
2023-04-30T03:37:20.006Z,13.60
2023-04-30T03:39:46.662Z,13.80
2023-04-30T03:42:13.302Z,13.90
2023-04-30T03:44:39.913Z,14.00
2023-04-30T03:47:06.521Z,13.90
2023-04-30T03:49:33.422Z,13.80
2023-04-30T03:52:00.003Z,13.40
2023-04-30T03:54:26.617Z,13.30
2023-04-30T03:56:53.492Z,13.20
2023-04-30T03:59:20.192Z,13.40
2023-04-30T04:01:46.833Z,13.10
2023-04-30T04:04:13.705Z,13.00
2023-04-30T04:06:40.555Z,13.20
2023-04-30T04:09:07.289Z,13.50
2023-04-30T04:11:33.843Z,13.60
2023-04-30T04:14:00.431Z,13.70
2023-04-30T04:16:27.059Z,13.80
2023-04-30T04:18:54.079Z,14.00
2023-04-30T04:21:20.845Z,13.90
2023-04-30T04:23:47.475Z,13.90
2023-04-30T04:26:14.065Z,14.00
2023-04-30T04:28:40.763Z,14.00
2023-04-30T04:31:07.344Z,14.00
2023-04-30T04:33:33.950Z,13.90
2023-04-30T04:36:00.573Z,14.10
2023-04-30T04:38:27.126Z,14.40
2023-04-30T04:40:53.715Z,14.20
2023-04-30T04:43:20.371Z,14.10
2023-04-30T04:45:46.970Z,13.70
2023-04-30T04:48:13.590Z,13.90
2023-04-30T04:50:40.203Z,13.80
2023-04-30T04:53:06.777Z,14.10
2023-04-30T04:55:33.404Z,14.60
2023-04-30T04:57:59.998Z,14.90
2023-04-30T05:00:26.780Z,14.90
2023-04-30T05:02:53.543Z,14.70
2023-04-30T05:05:20.304Z,14.60
2023-04-30T05:07:46.925Z,14.90
2023-04-30T05:10:13.493Z,15.20
2023-04-30T05:12:40.095Z,15.30
2023-04-30T05:15:06.725Z,15.20
2023-04-30T05:17:33.446Z,15.00
2023-04-30T05:20:00.066Z,15.10
2023-04-30T05:22:26.667Z,14.80
2023-04-30T05:24:53.247Z,15.20
2023-04-30T05:27:19.875Z,15.40
2023-04-30T05:29:46.456Z,15.50
2023-04-30T05:32:13.252Z,15.40
2023-04-30T05:34:39.866Z,15.60
2023-04-30T05:37:06.470Z,15.10
2023-04-30T05:39:33.056Z,15.00
2023-04-30T05:41:59.648Z,14.90
2023-04-30T05:44:26.226Z,14.60
2023-04-30T05:46:52.834Z,14.80
2023-04-30T05:49:19.539Z,15.10
2023-04-30T05:51:46.143Z,15.20
2023-04-30T05:54:13.771Z,15.30
2023-04-30T05:56:40.400Z,15.20
2023-04-30T05:59:06.987Z,15.10
2023-04-30T06:01:33.643Z,15.20
2023-04-30T06:04:00.414Z,15.60
2023-04-30T06:06:27.069Z,16.40
2023-04-30T06:08:53.707Z,16.40
2023-04-30T06:11:20.302Z,16.30
2023-04-30T06:13:46.979Z,15.70
2023-04-30T06:16:13.636Z,16.10
2023-04-30T06:18:40.224Z,16.10
2023-04-30T06:21:06.831Z,16.40
2023-04-30T06:23:33.418Z,16.30
2023-04-30T06:25:59.991Z,16.10
2023-04-30T06:28:26.601Z,16.40
2023-04-30T06:30:53.219Z,16.20
2023-04-30T06:33:19.973Z,16.60
2023-04-30T06:35:46.575Z,16.50
2023-04-30T06:38:13.128Z,16.60
2023-04-30T06:40:39.729Z,16.50
2023-04-30T06:43:06.332Z,16.60
2023-04-30T06:45:33.112Z,16.90
2023-04-30T06:47:59.746Z,16.90
2023-04-30T06:50:26.540Z,17.10
2023-04-30T06:52:53.211Z,17.00
2023-04-30T06:55:19.799Z,16.90
2023-04-30T06:57:46.610Z,17.10
2023-04-30T07:00:13.211Z,17.10
2023-04-30T07:02:39.984Z,17.20
2023-04-30T07:05:06.676Z,17.20
2023-04-30T07:07:33.531Z,16.90
2023-04-30T07:10:00.221Z,16.60
2023-04-30T07:12:26.776Z,16.70
2023-04-30T07:14:53.390Z,16.70
2023-04-30T07:17:20.017Z,16.60
2023-04-30T07:19:46.596Z,16.90
2023-04-30T07:22:13.178Z,17.10
2023-04-30T07:24:39.802Z,17.10
2023-04-30T07:27:06.499Z,16.40
2023-04-30T07:29:33.096Z,16.50
2023-04-30T07:31:59.778Z,16.80
2023-04-30T07:34:26.415Z,16.70
2023-04-30T07:36:53.014Z,17.00
2023-04-30T07:39:19.614Z,17.10
2023-04-30T07:41:46.362Z,17.70
2023-04-30T07:44:12.979Z,18.00
2023-04-30T07:46:39.642Z,18.20
2023-04-30T07:49:06.284Z,18.60
2023-04-30T07:51:32.930Z,18.60
2023-04-30T07:53:59.563Z,18.20
2023-04-30T07:56:26.204Z,17.90
2023-04-30T07:58:52.826Z,17.70
2023-04-30T08:01:19.397Z,17.70
2023-04-30T08:03:45.962Z,17.00
2023-04-30T08:06:12.650Z,17.10
2023-04-30T08:08:39.303Z,17.20
2023-04-30T08:11:05.973Z,17.40
2023-04-30T08:13:32.738Z,17.40
2023-04-30T08:15:59.430Z,17.50
2023-04-30T08:18:26.038Z,17.60
2023-04-30T08:20:52.645Z,17.60
2023-04-30T08:23:19.269Z,17.90
2023-04-30T08:25:46.027Z,18.00
2023-04-30T08:28:12.597Z,17.80
2023-04-30T08:30:39.190Z,17.90
2023-04-30T08:33:05.868Z,17.60
2023-04-30T08:35:32.500Z,18.00
2023-04-30T08:37:59.119Z,18.60
2023-04-30T08:40:43.847Z,18.70
2023-04-30T08:43:12.297Z,18.40
2023-04-30T08:45:38.946Z,18.40
2023-04-30T08:48:05.561Z,18.40
2023-04-30T08:50:32.204Z,18.50
2023-04-30T08:52:58.786Z,18.80
2023-04-30T08:55:25.385Z,19.10
2023-04-30T08:57:52.049Z,19.20
2023-04-30T09:00:18.679Z,19.10
2023-04-30T09:02:45.477Z,19.60
2023-04-30T09:05:12.189Z,20.00
2023-04-30T09:07:39.913Z,19.40
2023-04-30T09:10:08.429Z,18.80
2023-04-30T09:12:35.018Z,19.40
2023-04-30T09:15:01.808Z,19.60
2023-04-30T09:17:28.414Z,19.60
2023-04-30T09:19:55.395Z,19.20
2023-04-30T09:22:22.169Z,19.10
2023-04-30T09:24:48.744Z,18.60
2023-04-30T09:27:15.418Z,18.60
2023-04-30T09:29:42.008Z,18.80
2023-04-30T09:32:08.599Z,18.80
2023-04-30T09:34:35.159Z,19.00
2023-04-30T09:37:01.789Z,19.10
2023-04-30T09:39:28.347Z,18.60
2023-04-30T09:41:54.971Z,18.70
2023-04-30T09:44:21.571Z,18.90
2023-04-30T09:46:48.175Z,19.10
2023-04-30T09:49:15.269Z,18.50
2023-04-30T09:51:41.882Z,18.70
2023-04-30T09:54:08.844Z,19.10
2023-04-30T09:56:35.405Z,19.70
2023-04-30T09:59:02.204Z,19.80
2023-04-30T10:01:29.019Z,19.20
2023-04-30T10:03:55.868Z,19.40
2023-04-30T10:06:22.567Z,19.20
2023-04-30T10:08:49.208Z,19.80
2023-04-30T10:11:15.860Z,19.80
2023-04-30T10:13:42.438Z,19.40
2023-04-30T10:16:09.068Z,19.60
2023-04-30T10:18:35.742Z,19.90
2023-04-30T10:21:02.309Z,19.10
2023-04-30T10:23:28.899Z,18.80
2023-04-30T10:25:55.463Z,19.00
2023-04-30T10:28:22.055Z,19.40
2023-04-30T10:30:48.667Z,19.90
2023-04-30T10:33:16.637Z,19.90
2023-04-30T10:35:43.644Z,20.00
2023-04-30T10:38:10.267Z,19.80
2023-04-30T10:40:37.406Z,18.70
2023-04-30T10:43:04.014Z,18.00
2023-04-30T10:45:30.619Z,17.80
2023-04-30T10:47:57.234Z,17.80
2023-04-30T10:50:23.849Z,17.90
2023-04-30T10:52:50.578Z,18.30
2023-04-30T10:55:17.203Z,18.70
2023-04-30T10:57:43.803Z,18.10
2023-04-30T11:00:10.537Z,17.70
2023-04-30T11:02:37.195Z,17.70
2023-04-30T11:05:03.797Z,18.00
2023-04-30T11:07:30.381Z,18.00
2023-04-30T11:09:57.192Z,18.10
2023-04-30T11:12:24.031Z,18.10
2023-04-30T11:14:50.639Z,18.10
2023-04-30T11:17:17.217Z,18.20
2023-04-30T11:19:43.845Z,19.00
2023-04-30T11:22:10.422Z,19.20
2023-04-30T11:24:36.990Z,19.90
2023-04-30T11:27:05.979Z,20.60
2023-04-30T11:29:32.711Z,20.10
2023-04-30T11:31:59.393Z,19.20
2023-04-30T11:34:26.147Z,18.80
2023-04-30T11:36:52.999Z,19.80
2023-04-30T11:39:19.621Z,20.30
2023-04-30T11:41:46.273Z,20.80
2023-04-30T11:44:13.005Z,21.00
2023-04-30T11:46:39.683Z,21.20
2023-04-30T11:49:06.361Z,20.70
2023-04-30T11:51:32.966Z,20.40
2023-04-30T11:53:59.525Z,20.00
2023-04-30T11:56:26.112Z,20.10
2023-04-30T11:58:52.678Z,20.70
2023-04-30T12:01:19.257Z,20.70
2023-04-30T12:03:45.957Z,20.30
2023-04-30T12:06:12.727Z,19.70
2023-04-30T12:08:39.356Z,20.10
2023-04-30T12:11:05.956Z,19.80
2023-04-30T12:13:32.674Z,19.50
2023-04-30T12:15:59.281Z,19.30
2023-04-30T12:18:25.844Z,19.20
2023-04-30T12:20:52.506Z,19.10
2023-04-30T12:23:19.094Z,19.30
2023-04-30T12:25:45.695Z,19.00
2023-04-30T12:28:12.253Z,19.20
2023-04-30T12:30:38.882Z,19.40
2023-04-30T12:33:05.803Z,19.50
2023-04-30T12:35:32.489Z,19.20
2023-04-30T12:37:59.114Z,19.30
2023-04-30T12:40:25.711Z,19.50
2023-04-30T12:42:52.301Z,19.60
2023-04-30T12:45:18.941Z,19.70
2023-04-30T12:47:45.571Z,19.80
2023-04-30T12:50:12.242Z,20.00
2023-04-30T12:52:39.646Z,20.10
2023-04-30T12:55:06.430Z,19.80
2023-04-30T12:57:33.028Z,19.70
2023-04-30T12:59:59.673Z,19.50
2023-04-30T13:02:26.332Z,19.40
2023-04-30T13:04:52.958Z,19.90
2023-04-30T13:07:19.562Z,20.00
2023-04-30T13:09:46.185Z,20.40
2023-04-30T13:12:12.761Z,21.10
2023-04-30T13:14:39.357Z,20.80
2023-04-30T13:17:06.032Z,20.80
2023-04-30T13:19:32.689Z,20.50
2023-04-30T13:21:59.270Z,20.50
2023-04-30T13:24:25.837Z,20.50
2023-04-30T13:26:52.448Z,20.40
2023-04-30T13:29:19.049Z,20.20
2023-04-30T13:31:45.836Z,20.00
2023-04-30T13:34:12.497Z,20.00
2023-04-30T13:36:39.126Z,20.40
2023-04-30T13:39:05.696Z,20.90
2023-04-30T13:41:32.272Z,21.10
2023-04-30T13:43:59.068Z,21.40
2023-04-30T13:46:25.731Z,21.50
2023-04-30T13:48:52.709Z,22.10
2023-04-30T13:51:19.278Z,21.90
2023-04-30T13:53:46.260Z,21.60
2023-04-30T13:56:12.814Z,21.80
2023-04-30T13:58:39.369Z,22.00
2023-04-30T14:01:06.376Z,22.20
2023-04-30T14:03:33.142Z,22.60
2023-04-30T14:05:59.841Z,23.50
2023-04-30T14:08:26.425Z,22.80
2023-04-30T14:10:53.062Z,21.90
2023-04-30T14:13:19.670Z,21.90
2023-04-30T14:15:46.270Z,21.70
2023-04-30T14:18:12.897Z,22.00
2023-04-30T14:20:39.571Z,22.30
2023-04-30T14:23:06.141Z,21.90
2023-04-30T14:25:32.745Z,22.70
2023-04-30T14:27:59.329Z,23.20
2023-04-30T14:30:25.918Z,23.80
2023-04-30T14:32:52.856Z,23.80
2023-04-30T14:35:19.501Z,23.90
2023-04-30T14:37:46.153Z,23.70
2023-04-30T14:40:12.715Z,23.90
2023-04-30T14:42:39.391Z,23.90
2023-04-30T14:45:05.992Z,23.90
2023-04-30T14:47:32.606Z,23.70
2023-04-30T14:49:59.222Z,22.70
2023-04-30T14:52:25.818Z,22.30
2023-04-30T14:54:52.413Z,22.50
2023-04-30T14:57:18.987Z,22.90
2023-04-30T14:59:45.601Z,23.50
2023-04-30T15:02:12.218Z,23.10
2023-04-30T15:04:38.936Z,22.90
2023-04-30T15:07:05.542Z,23.30
2023-04-30T15:09:32.131Z,23.50
2023-04-30T15:11:58.741Z,23.70
2023-04-30T15:14:25.378Z,23.30
2023-04-30T15:16:51.994Z,22.70
2023-04-30T15:19:18.595Z,22.70
2023-04-30T15:21:46.979Z,22.20
2023-04-30T15:24:15.232Z,22.20
2023-04-30T15:26:41.802Z,22.30
2023-04-30T15:29:08.452Z,22.30
2023-04-30T15:31:35.065Z,22.30
2023-04-30T15:34:01.719Z,22.70
2023-04-30T15:36:28.295Z,22.60
2023-04-30T15:38:54.901Z,22.40
2023-04-30T15:41:21.479Z,22.20
2023-04-30T15:43:48.109Z,22.10
2023-04-30T15:46:14.767Z,21.10
2023-04-30T15:48:41.394Z,21.30
2023-04-30T15:51:08.018Z,20.70
2023-04-30T15:53:34.638Z,19.90
2023-04-30T15:56:01.215Z,19.50
2023-04-30T15:58:28.051Z,19.20
2023-04-30T16:00:54.627Z,19.00
2023-04-30T16:03:21.360Z,18.70
2023-04-30T16:05:48.024Z,18.90
2023-04-30T16:08:14.717Z,19.00
2023-04-30T16:10:41.311Z,19.30
2023-04-30T16:13:07.952Z,19.30
2023-04-30T16:15:34.652Z,19.50
2023-04-30T16:18:01.257Z,19.60
2023-04-30T16:20:27.866Z,20.00
2023-04-30T16:22:54.471Z,20.30
2023-04-30T16:25:21.055Z,20.40
2023-04-30T16:27:47.633Z,19.80
2023-04-30T16:30:14.408Z,19.70
2023-04-30T16:32:41.025Z,20.00
2023-04-30T16:35:07.771Z,20.20
2023-04-30T16:37:34.343Z,19.70
2023-04-30T16:40:00.932Z,19.70
2023-04-30T16:42:27.527Z,19.70
2023-04-30T16:44:54.099Z,19.50
2023-04-30T16:47:20.768Z,19.40
2023-04-30T16:49:47.588Z,19.40
2023-04-30T16:52:14.219Z,19.30
2023-04-30T16:54:40.783Z,19.40
2023-04-30T16:57:07.391Z,19.40
2023-04-30T16:59:34.170Z,19.30
2023-04-30T17:02:00.859Z,19.10
2023-04-30T17:04:27.443Z,18.10
2023-04-30T17:06:54.045Z,18.30
2023-04-30T17:09:20.643Z,18.30
2023-04-30T17:11:47.247Z,18.50
2023-04-30T17:14:13.814Z,18.50
2023-04-30T17:16:40.428Z,18.90
2023-04-30T17:19:06.991Z,19.30
2023-04-30T17:21:33.569Z,19.60
2023-04-30T17:24:00.148Z,19.70
2023-04-30T17:26:26.761Z,19.30
2023-04-30T17:28:53.343Z,18.50
2023-04-30T17:31:20.018Z,18.10
2023-04-30T17:33:47.149Z,18.00
2023-04-30T17:36:13.726Z,17.80
2023-04-30T17:38:40.335Z,17.60
2023-04-30T17:41:06.981Z,17.70
2023-04-30T17:43:33.579Z,17.90
2023-04-30T17:46:00.258Z,18.00
2023-04-30T17:48:26.919Z,17.80
2023-04-30T17:50:53.478Z,18.00
2023-04-30T17:53:20.050Z,17.90
2023-04-30T17:55:46.946Z,18.10
2023-04-30T17:58:13.548Z,18.20
2023-04-30T18:00:40.191Z,18.20
2023-04-30T18:03:06.921Z,18.10
2023-04-30T18:05:35.292Z,18.20
2023-04-30T18:08:02.309Z,18.10
2023-04-30T18:10:28.878Z,18.00
2023-04-30T18:12:55.486Z,18.30
2023-04-30T18:15:22.069Z,18.50
2023-04-30T18:17:48.749Z,18.50
2023-04-30T18:20:15.374Z,18.10
2023-04-30T18:22:41.965Z,18.10
2023-04-30T18:25:08.646Z,18.30
2023-04-30T18:27:35.220Z,18.10
2023-04-30T18:30:01.828Z,18.10
2023-04-30T18:32:28.404Z,18.10
2023-04-30T18:34:54.986Z,18.10
2023-04-30T18:37:21.657Z,18.20
2023-04-30T18:39:48.219Z,18.10
2023-04-30T18:42:14.881Z,18.10
2023-04-30T18:44:41.623Z,17.90
2023-04-30T18:47:08.259Z,17.90
2023-04-30T18:49:34.835Z,17.80
2023-04-30T18:52:01.390Z,17.40
2023-04-30T18:54:28.041Z,17.40
2023-04-30T18:56:54.669Z,17.30
2023-04-30T18:59:21.255Z,17.30
2023-04-30T19:01:47.911Z,17.10
2023-04-30T19:04:14.517Z,16.90
2023-04-30T19:06:41.138Z,16.90
2023-04-30T19:09:07.746Z,16.90
2023-04-30T19:11:36.685Z,16.90
2023-04-30T19:14:03.305Z,16.80
2023-04-30T19:16:29.951Z,16.70
2023-04-30T19:18:56.613Z,16.70
2023-04-30T19:21:23.167Z,16.70
2023-04-30T19:23:49.754Z,16.60
2023-04-30T19:26:16.402Z,16.50
2023-04-30T19:28:43.076Z,16.50
2023-04-30T19:31:09.844Z,16.50
2023-04-30T19:33:36.600Z,16.40
2023-04-30T19:36:03.229Z,16.20
2023-04-30T19:38:29.793Z,16.00
2023-04-30T19:40:56.389Z,16.00
2023-04-30T19:43:22.980Z,16.00
2023-04-30T19:45:49.665Z,15.90
2023-04-30T19:48:16.372Z,15.80
2023-04-30T19:50:43.046Z,15.80
2023-04-30T19:53:09.750Z,15.50
2023-04-30T19:55:36.316Z,15.10
2023-04-30T19:58:02.997Z,15.30
2023-04-30T20:00:29.616Z,15.40
2023-04-30T20:02:56.261Z,15.30
2023-04-30T20:05:22.884Z,15.20
2023-04-30T20:07:49.498Z,15.20
2023-04-30T20:10:16.050Z,15.20
2023-04-30T20:12:42.934Z,15.10
2023-04-30T20:15:09.601Z,14.80
2023-04-30T20:17:36.213Z,14.80
2023-04-30T20:20:02.856Z,15.00
2023-04-30T20:22:29.429Z,14.90
2023-04-30T20:24:56.036Z,14.80
2023-04-30T20:27:22.967Z,14.30
2023-04-30T20:29:49.565Z,14.30
2023-04-30T20:32:16.296Z,14.40
2023-04-30T20:34:43.095Z,14.40
2023-04-30T20:37:09.697Z,14.30
2023-04-30T20:39:36.382Z,13.70
2023-04-30T20:42:03.011Z,13.90
2023-04-30T20:44:29.599Z,14.10
2023-04-30T20:46:56.273Z,14.10
2023-04-30T20:49:22.906Z,14.10
2023-04-30T20:51:49.497Z,14.10
2023-04-30T20:54:16.089Z,14.00
2023-04-30T20:56:42.651Z,13.90
2023-04-30T20:59:09.333Z,13.90
2023-04-30T21:01:35.952Z,13.90
2023-04-30T21:04:02.579Z,13.80
2023-04-30T21:06:29.169Z,13.40
2023-04-30T21:08:55.847Z,13.20
2023-04-30T21:11:22.420Z,13.30
2023-04-30T21:13:50.759Z,13.40
2023-04-30T21:16:18.270Z,12.60
2023-04-30T21:18:44.842Z,12.70
2023-04-30T21:21:11.436Z,13.00
2023-04-30T21:23:38.182Z,12.60
2023-04-30T21:26:04.781Z,12.80
2023-04-30T21:28:31.416Z,13.10
2023-04-30T21:30:58.133Z,13.10
2023-04-30T21:33:25.789Z,13.30
2023-04-30T21:35:52.386Z,13.10
2023-04-30T21:38:18.965Z,13.20
2023-04-30T21:40:46.693Z,13.10
2023-04-30T21:43:13.281Z,13.10
2023-04-30T21:45:41.468Z,13.10
2023-04-30T21:48:09.879Z,13.00
2023-04-30T21:50:36.798Z,12.90
2023-04-30T21:53:03.435Z,12.90
2023-04-30T21:55:30.108Z,12.70
2023-04-30T21:57:56.720Z,12.00
2023-04-30T22:00:23.312Z,11.50
2023-04-30T22:02:49.985Z,11.40
2023-04-30T22:05:16.598Z,11.80
2023-04-30T22:07:43.551Z,12.00
2023-04-30T22:10:10.120Z,12.00
2023-04-30T22:12:37.997Z,12.20
2023-04-30T22:15:04.553Z,12.00
2023-04-30T22:17:31.173Z,11.70
2023-04-30T22:19:58.079Z,12.00
2023-04-30T22:22:25.047Z,12.20
2023-04-30T22:24:51.646Z,12.50
2023-04-30T22:27:18.232Z,12.50
2023-04-30T22:29:44.822Z,12.50
2023-04-30T22:32:11.634Z,12.20
2023-04-30T22:34:38.330Z,11.60
2023-04-30T22:37:04.909Z,11.00
2023-04-30T22:39:31.471Z,11.30
2023-04-30T22:41:58.085Z,11.10
2023-04-30T22:44:24.693Z,10.90
2023-04-30T22:46:51.302Z,11.40
2023-04-30T22:49:30.181Z,11.80
2023-04-30T22:51:58.032Z,11.90
2023-04-30T22:54:24.677Z,11.70
2023-04-30T22:56:51.270Z,11.10
2023-04-30T22:59:17.874Z,10.90
2023-04-30T23:01:44.457Z,11.10
2023-04-30T23:04:11.078Z,11.50
2023-04-30T23:06:37.776Z,11.60
2023-04-30T23:09:04.378Z,11.70
2023-04-30T23:11:30.965Z,11.70
2023-04-30T23:13:57.531Z,11.80
2023-04-30T23:16:24.267Z,11.70
2023-04-30T23:18:51.188Z,11.70
2023-04-30T23:21:17.816Z,11.60
2023-04-30T23:23:44.449Z,11.60
2023-04-30T23:26:11.195Z,11.60
2023-04-30T23:28:37.801Z,11.60
2023-04-30T23:31:04.381Z,11.70
2023-04-30T23:33:30.968Z,11.70
2023-04-30T23:35:57.783Z,11.50
2023-04-30T23:38:24.377Z,11.10
2023-04-30T23:40:51.169Z,11.20
2023-04-30T23:43:17.756Z,11.10
2023-04-30T23:45:44.344Z,11.20
2023-04-30T23:48:10.997Z,11.30
2023-04-30T23:50:37.604Z,11.40
2023-04-30T23:53:04.180Z,11.30
2023-04-30T23:55:30.744Z,10.80
2023-04-30T23:57:57.373Z,10.80
